sensor_id;sensor_type;location;lat;lon;timestamp;P1;durP1;ratioP1;P2;durP2;ratioP2
54139;SDS011;40046;53.254;5.900;2024-02-23T00:01:40;15.00;;;2.40;;
54139;SDS011;40046;53.254;5.900;2024-02-23T00:04:06;15.45;;;1.42;;
54139;SDS011;40046;53.254;5.900;2024-02-23T00:06:33;18.15;;;6.07;;
54139;SDS011;40046;53.254;5.900;2024-02-23T00:09:00;10.95;;;1.80;;
54139;SDS011;40046;53.254;5.900;2024-02-23T00:11:26;14.45;;;2.60;;
54139;SDS011;40046;53.254;5.900;2024-02-23T00:13:55;13.75;;;2.70;;
54139;SDS011;40046;53.254;5.900;2024-02-23T00:16:21;16.35;;;2.10;;
54139;SDS011;40046;53.254;5.900;2024-02-23T00:18:48;14.48;;;2.80;;
54139;SDS011;40046;53.254;5.900;2024-02-23T00:21:14;13.45;;;2.80;;
54139;SDS011;40046;53.254;5.900;2024-02-23T00:23:40;6.28;;;1.58;;
54139;SDS011;40046;53.254;5.900;2024-02-23T00:26:06;5.38;;;1.90;;
54139;SDS011;40046;53.254;5.900;2024-02-23T00:28:33;11.38;;;3.90;;
54139;SDS011;40046;53.254;5.900;2024-02-23T00:31:00;4.35;;;0.75;;
54139;SDS011;40046;53.254;5.900;2024-02-23T00:33:26;7.05;;;1.08;;
54139;SDS011;40046;53.254;5.900;2024-02-23T00:35:52;5.15;;;0.70;;
54139;SDS011;40046;53.254;5.900;2024-02-23T00:38:19;8.65;;;1.48;;
54139;SDS011;40046;53.254;5.900;2024-02-23T00:40:45;5.25;;;1.13;;
54139;SDS011;40046;53.254;5.900;2024-02-23T00:43:11;8.63;;;1.48;;
54139;SDS011;40046;53.254;5.900;2024-02-23T00:45:37;8.50;;;1.95;;
54139;SDS011;40046;53.254;5.900;2024-02-23T00:48:04;10.98;;;2.58;;
54139;SDS011;40046;53.254;5.900;2024-02-23T00:50:30;12.02;;;1.80;;
54139;SDS011;40046;53.254;5.900;2024-02-23T00:52:57;12.18;;;1.83;;
54139;SDS011;40046;53.254;5.900;2024-02-23T00:55:23;13.32;;;2.88;;
54139;SDS011;40046;53.254;5.900;2024-02-23T00:57:50;15.70;;;2.97;;
54139;SDS011;40046;53.254;5.900;2024-02-23T01:00:16;16.08;;;2.35;;
54139;SDS011;40046;53.254;5.900;2024-02-23T01:02:43;14.15;;;2.30;;
54139;SDS011;40046;53.254;5.900;2024-02-23T01:05:09;12.25;;;2.22;;
54139;SDS011;40046;53.254;5.900;2024-02-23T01:07:35;17.77;;;2.58;;
54139;SDS011;40046;53.254;5.900;2024-02-23T01:10:02;20.35;;;3.35;;
54139;SDS011;40046;53.254;5.900;2024-02-23T01:12:29;21.77;;;3.22;;
54139;SDS011;40046;53.254;5.900;2024-02-23T01:14:55;18.92;;;3.35;;
54139;SDS011;40046;53.254;5.900;2024-02-23T01:17:21;12.10;;;2.28;;
54139;SDS011;40046;53.254;5.900;2024-02-23T01:19:47;22.88;;;5.22;;
54139;SDS011;40046;53.254;5.900;2024-02-23T01:22:14;19.33;;;2.90;;
54139;SDS011;40046;53.254;5.900;2024-02-23T01:24:40;19.23;;;4.40;;
54139;SDS011;40046;53.254;5.900;2024-02-23T01:27:07;16.80;;;2.60;;
54139;SDS011;40046;53.254;5.900;2024-02-23T01:29:33;21.13;;;3.13;;
54139;SDS011;40046;53.254;5.900;2024-02-23T01:31:59;18.42;;;5.78;;
54139;SDS011;40046;53.254;5.900;2024-02-23T01:34:26;15.20;;;2.88;;
54139;SDS011;40046;53.254;5.900;2024-02-23T01:36:52;17.45;;;3.10;;
54139;SDS011;40046;53.254;5.900;2024-02-23T01:39:19;12.10;;;3.20;;
54139;SDS011;40046;53.254;5.900;2024-02-23T01:41:45;17.05;;;4.25;;
54139;SDS011;40046;53.254;5.900;2024-02-23T01:44:11;16.00;;;3.58;;
54139;SDS011;40046;53.254;5.900;2024-02-23T01:46:37;19.30;;;3.10;;
54139;SDS011;40046;53.254;5.900;2024-02-23T01:49:06;11.20;;;2.45;;
54139;SDS011;40046;53.254;5.900;2024-02-23T01:51:33;14.00;;;2.00;;
54139;SDS011;40046;53.254;5.900;2024-02-23T01:53:59;11.00;;;1.83;;
54139;SDS011;40046;53.254;5.900;2024-02-23T01:56:25;17.75;;;2.70;;
54139;SDS011;40046;53.254;5.900;2024-02-23T01:58:52;16.25;;;3.38;;
54139;SDS011;40046;53.254;5.900;2024-02-23T02:01:19;10.68;;;2.33;;
54139;SDS011;40046;53.254;5.900;2024-02-23T02:03:45;10.70;;;2.20;;
54139;SDS011;40046;53.254;5.900;2024-02-23T02:06:11;17.25;;;2.75;;
54139;SDS011;40046;53.254;5.900;2024-02-23T02:08:38;10.18;;;2.88;;
54139;SDS011;40046;53.254;5.900;2024-02-23T02:11:04;11.95;;;2.35;;
54139;SDS011;40046;53.254;5.900;2024-02-23T02:13:30;15.23;;;3.00;;
54139;SDS011;40046;53.254;5.900;2024-02-23T02:16:00;14.07;;;3.17;;
54139;SDS011;40046;53.254;5.900;2024-02-23T02:18:27;17.33;;;2.58;;
54139;SDS011;40046;53.254;5.900;2024-02-23T02:20:54;15.50;;;2.85;;
54139;SDS011;40046;53.254;5.900;2024-02-23T02:23:21;13.00;;;2.92;;
54139;SDS011;40046;53.254;5.900;2024-02-23T02:25:54;14.80;;;3.38;;
54139;SDS011;40046;53.254;5.900;2024-02-23T02:28:21;14.02;;;2.58;;
54139;SDS011;40046;53.254;5.900;2024-02-23T02:30:48;11.73;;;2.13;;
54139;SDS011;40046;53.254;5.900;2024-02-23T02:33:14;12.60;;;2.50;;
54139;SDS011;40046;53.254;5.900;2024-02-23T02:35:40;12.30;;;3.60;;
54139;SDS011;40046;53.254;5.900;2024-02-23T02:38:06;9.05;;;1.80;;
54139;SDS011;40046;53.254;5.900;2024-02-23T02:40:33;8.40;;;2.50;;
54139;SDS011;40046;53.254;5.900;2024-02-23T02:42:59;11.98;;;2.45;;
54139;SDS011;40046;53.254;5.900;2024-02-23T02:45:25;12.00;;;3.90;;
54139;SDS011;40046;53.254;5.900;2024-02-23T02:47:52;10.32;;;2.60;;
54139;SDS011;40046;53.254;5.900;2024-02-23T02:50:18;12.15;;;2.00;;
54139;SDS011;40046;53.254;5.900;2024-02-23T02:52:44;20.08;;;2.40;;
54139;SDS011;40046;53.254;5.900;2024-02-23T02:55:11;11.13;;;3.15;;
54139;SDS011;40046;53.254;5.900;2024-02-23T02:57:38;9.65;;;2.22;;
54139;SDS011;40046;53.254;5.900;2024-02-23T03:00:04;12.43;;;1.88;;
54139;SDS011;40046;53.254;5.900;2024-02-23T03:02:40;14.73;;;2.65;;
54139;SDS011;40046;53.254;5.900;2024-02-23T03:05:06;10.55;;;2.95;;
54139;SDS011;40046;53.254;5.900;2024-02-23T03:07:32;17.35;;;2.80;;
54139;SDS011;40046;53.254;5.900;2024-02-23T03:09:58;9.73;;;1.85;;
54139;SDS011;40046;53.254;5.900;2024-02-23T03:12:25;12.60;;;2.08;;
54139;SDS011;40046;53.254;5.900;2024-02-23T03:14:51;16.35;;;2.25;;
54139;SDS011;40046;53.254;5.900;2024-02-23T03:17:17;16.90;;;2.42;;
54139;SDS011;40046;53.254;5.900;2024-02-23T03:19:43;10.15;;;1.55;;
54139;SDS011;40046;53.254;5.900;2024-02-23T03:22:09;17.75;;;2.22;;
54139;SDS011;40046;53.254;5.900;2024-02-23T03:24:35;7.50;;;1.70;;
54139;SDS011;40046;53.254;5.900;2024-02-23T03:27:02;5.47;;;1.40;;
54139;SDS011;40046;53.254;5.900;2024-02-23T03:29:29;6.30;;;1.35;;
54139;SDS011;40046;53.254;5.900;2024-02-23T03:31:55;8.77;;;1.13;;
54139;SDS011;40046;53.254;5.900;2024-02-23T03:34:22;5.25;;;1.67;;
54139;SDS011;40046;53.254;5.900;2024-02-23T03:36:48;7.32;;;1.15;;
54139;SDS011;40046;53.254;5.900;2024-02-23T03:39:14;10.95;;;1.88;;
54139;SDS011;40046;53.254;5.900;2024-02-23T03:41:40;11.85;;;1.75;;
54139;SDS011;40046;53.254;5.900;2024-02-23T03:44:06;12.40;;;1.50;;
54139;SDS011;40046;53.254;5.900;2024-02-23T03:46:33;9.55;;;1.88;;
54139;SDS011;40046;53.254;5.900;2024-02-23T03:48:59;8.95;;;1.48;;
54139;SDS011;40046;53.254;5.900;2024-02-23T03:51:26;10.95;;;2.03;;
54139;SDS011;40046;53.254;5.900;2024-02-23T03:53:52;8.25;;;1.50;;
54139;SDS011;40046;53.254;5.900;2024-02-23T03:56:18;9.55;;;2.67;;
54139;SDS011;40046;53.254;5.900;2024-02-23T03:58:44;13.90;;;1.27;;
54139;SDS011;40046;53.254;5.900;2024-02-23T04:01:11;10.98;;;1.73;;
54139;SDS011;40046;53.254;5.900;2024-02-23T04:03:37;15.15;;;3.25;;
54139;SDS011;40046;53.254;5.900;2024-02-23T04:06:03;13.80;;;1.92;;
54139;SDS011;40046;53.254;5.900;2024-02-23T04:08:30;9.75;;;1.90;;
54139;SDS011;40046;53.254;5.900;2024-02-23T04:10:56;8.88;;;1.30;;
54139;SDS011;40046;53.254;5.900;2024-02-23T04:13:22;11.07;;;1.50;;
54139;SDS011;40046;53.254;5.900;2024-02-23T04:15:49;11.30;;;1.70;;
54139;SDS011;40046;53.254;5.900;2024-02-23T04:18:15;25.77;;;5.50;;
54139;SDS011;40046;53.254;5.900;2024-02-23T04:20:41;10.43;;;2.28;;
54139;SDS011;40046;53.254;5.900;2024-02-23T04:23:07;15.70;;;3.08;;
54139;SDS011;40046;53.254;5.900;2024-02-23T04:25:34;8.20;;;1.75;;
54139;SDS011;40046;53.254;5.900;2024-02-23T04:28:00;13.68;;;1.63;;
54139;SDS011;40046;53.254;5.900;2024-02-23T04:30:26;14.73;;;2.15;;
54139;SDS011;40046;53.254;5.900;2024-02-23T04:32:52;13.95;;;1.90;;
54139;SDS011;40046;53.254;5.900;2024-02-23T04:35:18;9.73;;;1.80;;
54139;SDS011;40046;53.254;5.900;2024-02-23T04:37:45;14.00;;;1.90;;
54139;SDS011;40046;53.254;5.900;2024-02-23T04:40:11;17.40;;;2.20;;
54139;SDS011;40046;53.254;5.900;2024-02-23T04:42:37;11.65;;;2.42;;
54139;SDS011;40046;53.254;5.900;2024-02-23T04:45:04;14.18;;;1.98;;
54139;SDS011;40046;53.254;5.900;2024-02-23T04:47:30;9.10;;;2.55;;
54139;SDS011;40046;53.254;5.900;2024-02-23T04:49:57;8.98;;;1.70;;
54139;SDS011;40046;53.254;5.900;2024-02-23T04:52:24;9.00;;;2.30;;
54139;SDS011;40046;53.254;5.900;2024-02-23T04:54:50;14.35;;;1.85;;
54139;SDS011;40046;53.254;5.900;2024-02-23T04:57:16;10.13;;;1.70;;
54139;SDS011;40046;53.254;5.900;2024-02-23T04:59:43;15.05;;;1.60;;
54139;SDS011;40046;53.254;5.900;2024-02-23T05:02:09;12.20;;;2.13;;
54139;SDS011;40046;53.254;5.900;2024-02-23T05:04:35;16.95;;;2.10;;
54139;SDS011;40046;53.254;5.900;2024-02-23T05:07:02;11.80;;;1.98;;
54139;SDS011;40046;53.254;5.900;2024-02-23T05:09:28;9.05;;;1.40;;
54139;SDS011;40046;53.254;5.900;2024-02-23T05:11:54;7.72;;;1.65;;
54139;SDS011;40046;53.254;5.900;2024-02-23T05:14:20;8.20;;;2.92;;
54139;SDS011;40046;53.254;5.900;2024-02-23T05:16:47;19.73;;;2.25;;
54139;SDS011;40046;53.254;5.900;2024-02-23T05:19:13;12.93;;;1.70;;
54139;SDS011;40046;53.254;5.900;2024-02-23T05:21:40;16.67;;;2.30;;
54139;SDS011;40046;53.254;5.900;2024-02-23T05:24:06;12.63;;;1.95;;
54139;SDS011;40046;53.254;5.900;2024-02-23T05:26:34;10.65;;;2.30;;
54139;SDS011;40046;53.254;5.900;2024-02-23T05:29:00;17.85;;;2.17;;
54139;SDS011;40046;53.254;5.900;2024-02-23T05:31:46;8.85;;;1.50;;
54139;SDS011;40046;53.254;5.900;2024-02-23T05:34:13;10.35;;;2.28;;
54139;SDS011;40046;53.254;5.900;2024-02-23T05:36:39;12.38;;;2.47;;
54139;SDS011;40046;53.254;5.900;2024-02-23T05:39:05;11.20;;;2.38;;
54139;SDS011;40046;53.254;5.900;2024-02-23T05:41:33;13.38;;;2.35;;
54139;SDS011;40046;53.254;5.900;2024-02-23T05:43:59;10.40;;;1.85;;
54139;SDS011;40046;53.254;5.900;2024-02-23T05:46:25;14.32;;;2.63;;
54139;SDS011;40046;53.254;5.900;2024-02-23T05:48:51;12.07;;;2.03;;
54139;SDS011;40046;53.254;5.900;2024-02-23T05:51:18;16.20;;;2.58;;
54139;SDS011;40046;53.254;5.900;2024-02-23T05:53:44;21.02;;;6.43;;
54139;SDS011;40046;53.254;5.900;2024-02-23T05:56:10;12.45;;;1.75;;
54139;SDS011;40046;53.254;5.900;2024-02-23T05:58:37;11.20;;;1.65;;
54139;SDS011;40046;53.254;5.900;2024-02-23T06:01:03;8.90;;;2.20;;
54139;SDS011;40046;53.254;5.900;2024-02-23T06:03:30;14.63;;;2.05;;
54139;SDS011;40046;53.254;5.900;2024-02-23T06:05:56;21.60;;;3.45;;
54139;SDS011;40046;53.254;5.900;2024-02-23T06:08:22;15.98;;;2.42;;
54139;SDS011;40046;53.254;5.900;2024-02-23T06:10:48;10.63;;;2.60;;
54139;SDS011;40046;53.254;5.900;2024-02-23T06:13:14;13.73;;;2.15;;
54139;SDS011;40046;53.254;5.900;2024-02-23T06:15:41;13.70;;;2.85;;
54139;SDS011;40046;53.254;5.900;2024-02-23T06:18:07;11.82;;;2.83;;
54139;SDS011;40046;53.254;5.900;2024-02-23T06:20:33;14.85;;;3.17;;
54139;SDS011;40046;53.254;5.900;2024-02-23T06:22:59;9.55;;;2.05;;
54139;SDS011;40046;53.254;5.900;2024-02-23T06:25:26;15.55;;;2.28;;
54139;SDS011;40046;53.254;5.900;2024-02-23T06:27:52;21.48;;;2.63;;
54139;SDS011;40046;53.254;5.900;2024-02-23T06:30:18;14.30;;;2.63;;
54139;SDS011;40046;53.254;5.900;2024-02-23T06:32:46;12.45;;;2.30;;
54139;SDS011;40046;53.254;5.900;2024-02-23T06:35:12;17.73;;;5.25;;
54139;SDS011;40046;53.254;5.900;2024-02-23T06:37:39;11.90;;;4.20;;
54139;SDS011;40046;53.254;5.900;2024-02-23T06:40:05;12.30;;;2.72;;
54139;SDS011;40046;53.254;5.900;2024-02-23T06:42:32;11.02;;;3.20;;
54139;SDS011;40046;53.254;5.900;2024-02-23T06:44:58;14.75;;;4.43;;
54139;SDS011;40046;53.254;5.900;2024-02-23T06:47:26;16.98;;;3.33;;
54139;SDS011;40046;53.254;5.900;2024-02-23T06:49:52;17.63;;;3.67;;
54139;SDS011;40046;53.254;5.900;2024-02-23T06:52:19;13.55;;;4.13;;
54139;SDS011;40046;53.254;5.900;2024-02-23T06:54:45;16.10;;;3.95;;
54139;SDS011;40046;53.254;5.900;2024-02-23T06:57:11;15.20;;;3.47;;
54139;SDS011;40046;53.254;5.900;2024-02-23T06:59:37;20.40;;;3.97;;
54139;SDS011;40046;53.254;5.900;2024-02-23T07:02:03;12.35;;;3.85;;
54139;SDS011;40046;53.254;5.900;2024-02-23T07:04:30;10.60;;;3.70;;
54139;SDS011;40046;53.254;5.900;2024-02-23T07:06:57;17.15;;;5.82;;
54139;SDS011;40046;53.254;5.900;2024-02-23T07:09:23;13.50;;;5.30;;
54139;SDS011;40046;53.254;5.900;2024-02-23T07:11:49;15.23;;;7.15;;
54139;SDS011;40046;53.254;5.900;2024-02-23T07:14:16;19.17;;;9.07;;
54139;SDS011;40046;53.254;5.900;2024-02-23T07:16:43;19.00;;;5.63;;
54139;SDS011;40046;53.254;5.900;2024-02-23T07:19:09;15.90;;;5.13;;
54139;SDS011;40046;53.254;5.900;2024-02-23T07:21:36;12.40;;;4.47;;
54139;SDS011;40046;53.254;5.900;2024-02-23T07:24:02;15.85;;;5.55;;
54139;SDS011;40046;53.254;5.900;2024-02-23T07:26:28;13.70;;;4.85;;
54139;SDS011;40046;53.254;5.900;2024-02-23T07:28:55;20.98;;;6.25;;
54139;SDS011;40046;53.254;5.900;2024-02-23T07:31:21;13.40;;;4.57;;
54139;SDS011;40046;53.254;5.900;2024-02-23T07:33:47;16.67;;;4.65;;
54139;SDS011;40046;53.254;5.900;2024-02-23T07:36:17;9.40;;;3.53;;
54139;SDS011;40046;53.254;5.900;2024-02-23T07:38:43;12.32;;;3.45;;
54139;SDS011;40046;53.254;5.900;2024-02-23T07:41:10;10.77;;;2.92;;
54139;SDS011;40046;53.254;5.900;2024-02-23T07:43:36;13.30;;;2.28;;
54139;SDS011;40046;53.254;5.900;2024-02-23T07:46:02;9.80;;;2.10;;
54139;SDS011;40046;53.254;5.900;2024-02-23T07:48:30;6.95;;;2.10;;
54139;SDS011;40046;53.254;5.900;2024-02-23T07:50:56;7.32;;;1.77;;
54139;SDS011;40046;53.254;5.900;2024-02-23T07:53:22;11.27;;;2.85;;
54139;SDS011;40046;53.254;5.900;2024-02-23T07:55:49;9.77;;;2.00;;
54139;SDS011;40046;53.254;5.900;2024-02-23T07:58:15;7.93;;;2.70;;
54139;SDS011;40046;53.254;5.900;2024-02-23T08:00:41;11.77;;;4.10;;
54139;SDS011;40046;53.254;5.900;2024-02-23T08:03:07;11.13;;;3.08;;
54139;SDS011;40046;53.254;5.900;2024-02-23T08:05:33;12.85;;;3.92;;
54139;SDS011;40046;53.254;5.900;2024-02-23T08:08:00;15.75;;;5.50;;
54139;SDS011;40046;53.254;5.900;2024-02-23T08:10:26;7.45;;;4.35;;
54139;SDS011;40046;53.254;5.900;2024-02-23T08:12:52;8.73;;;3.78;;
54139;SDS011;40046;53.254;5.900;2024-02-23T08:15:18;12.15;;;4.35;;
54139;SDS011;40046;53.254;5.900;2024-02-23T08:17:44;12.05;;;4.55;;
54139;SDS011;40046;53.254;5.900;2024-02-23T08:20:11;12.30;;;4.72;;
54139;SDS011;40046;53.254;5.900;2024-02-23T08:22:37;10.15;;;4.22;;
54139;SDS011;40046;53.254;5.900;2024-02-23T08:25:03;10.75;;;4.47;;
54139;SDS011;40046;53.254;5.900;2024-02-23T08:27:30;14.48;;;4.78;;
54139;SDS011;40046;53.254;5.900;2024-02-23T08:29:56;13.05;;;4.88;;
54139;SDS011;40046;53.254;5.900;2024-02-23T08:32:22;9.18;;;5.22;;
54139;SDS011;40046;53.254;5.900;2024-02-23T08:34:48;8.07;;;5.50;;
54139;SDS011;40046;53.254;5.900;2024-02-23T08:37:15;12.70;;;6.45;;
54139;SDS011;40046;53.254;5.900;2024-02-23T08:39:41;13.38;;;6.10;;
54139;SDS011;40046;53.254;5.900;2024-02-23T08:42:07;12.52;;;5.70;;
54139;SDS011;40046;53.254;5.900;2024-02-23T08:44:34;20.08;;;8.65;;
54139;SDS011;40046;53.254;5.900;2024-02-23T08:47:00;13.52;;;6.22;;
54139;SDS011;40046;53.254;5.900;2024-02-23T08:49:27;8.00;;;5.30;;
54139;SDS011;40046;53.254;5.900;2024-02-23T08:51:53;7.82;;;4.78;;
54139;SDS011;40046;53.254;5.900;2024-02-23T08:54:19;9.55;;;4.78;;
54139;SDS011;40046;53.254;5.900;2024-02-23T08:56:45;8.57;;;4.38;;
54139;SDS011;40046;53.254;5.900;2024-02-23T08:59:12;6.68;;;4.40;;
54139;SDS011;40046;53.254;5.900;2024-02-23T09:01:38;13.23;;;4.93;;
54139;SDS011;40046;53.254;5.900;2024-02-23T09:04:04;10.05;;;5.00;;
54139;SDS011;40046;53.254;5.900;2024-02-23T09:06:30;7.50;;;3.67;;
54139;SDS011;40046;53.254;5.900;2024-02-23T09:08:58;5.65;;;2.70;;
54139;SDS011;40046;53.254;5.900;2024-02-23T09:11:24;12.65;;;3.38;;
54139;SDS011;40046;53.254;5.900;2024-02-23T09:13:50;11.15;;;3.22;;
54139;SDS011;40046;53.254;5.900;2024-02-23T09:16:16;6.60;;;3.28;;
54139;SDS011;40046;53.254;5.900;2024-02-23T09:18:44;6.60;;;2.80;;
54139;SDS011;40046;53.254;5.900;2024-02-23T09:21:10;5.70;;;2.88;;
54139;SDS011;40046;53.254;5.900;2024-02-23T09:23:36;13.63;;;2.70;;
54139;SDS011;40046;53.254;5.900;2024-02-23T09:26:08;9.40;;;2.55;;
54139;SDS011;40046;53.254;5.900;2024-02-23T09:28:34;9.40;;;2.28;;
54139;SDS011;40046;53.254;5.900;2024-02-23T09:31:00;9.82;;;2.05;;
54139;SDS011;40046;53.254;5.900;2024-02-23T09:33:28;8.82;;;1.65;;
54139;SDS011;40046;53.254;5.900;2024-02-23T09:35:54;7.90;;;2.03;;
54139;SDS011;40046;53.254;5.900;2024-02-23T09:38:21;8.82;;;1.80;;
54139;SDS011;40046;53.254;5.900;2024-02-23T09:40:50;7.28;;;1.67;;
54139;SDS011;40046;53.254;5.900;2024-02-23T09:43:16;6.88;;;1.88;;
54139;SDS011;40046;53.254;5.900;2024-02-23T09:45:43;10.52;;;2.10;;
54139;SDS011;40046;53.254;5.900;2024-02-23T09:48:10;7.85;;;1.70;;
54139;SDS011;40046;53.254;5.900;2024-02-23T09:50:37;7.45;;;2.10;;
54139;SDS011;40046;53.254;5.900;2024-02-23T09:53:06;4.70;;;1.23;;
54139;SDS011;40046;53.254;5.900;2024-02-23T09:55:35;10.32;;;1.65;;
54139;SDS011;40046;53.254;5.900;2024-02-23T09:58:01;10.00;;;1.98;;
54139;SDS011;40046;53.254;5.900;2024-02-23T10:00:28;8.50;;;1.80;;
54139;SDS011;40046;53.254;5.900;2024-02-23T10:02:55;7.63;;;1.83;;
54139;SDS011;40046;53.254;5.900;2024-02-23T10:05:23;7.45;;;1.60;;
54139;SDS011;40046;53.254;5.900;2024-02-23T10:07:55;7.03;;;1.60;;
54139;SDS011;40046;53.254;5.900;2024-02-23T10:10:29;7.97;;;1.52;;
54139;SDS011;40046;53.254;5.900;2024-02-23T10:12:57;4.97;;;1.90;;
54139;SDS011;40046;53.254;5.900;2024-02-23T10:15:23;12.27;;;2.50;;
54139;SDS011;40046;53.254;5.900;2024-02-23T10:17:50;7.22;;;1.58;;
54139;SDS011;40046;53.254;5.900;2024-02-23T10:20:17;8.27;;;1.90;;
54139;SDS011;40046;53.254;5.900;2024-02-23T10:22:43;6.90;;;1.85;;
54139;SDS011;40046;53.254;5.900;2024-02-23T10:25:11;8.70;;;1.95;;
54139;SDS011;40046;53.254;5.900;2024-02-23T10:27:37;4.13;;;1.40;;
54139;SDS011;40046;53.254;5.900;2024-02-23T10:30:04;6.20;;;1.60;;
54139;SDS011;40046;53.254;5.900;2024-02-23T10:32:32;6.22;;;2.05;;
54139;SDS011;40046;53.254;5.900;2024-02-23T10:35:00;5.38;;;1.63;;
54139;SDS011;40046;53.254;5.900;2024-02-23T10:37:29;8.73;;;1.98;;
54139;SDS011;40046;53.254;5.900;2024-02-23T10:39:57;5.43;;;1.95;;
54139;SDS011;40046;53.254;5.900;2024-02-23T10:42:24;9.30;;;3.10;;
54139;SDS011;40046;53.254;5.900;2024-02-23T10:44:53;6.25;;;2.45;;
54139;SDS011;40046;53.254;5.900;2024-02-23T10:47:21;13.30;;;2.47;;
54139;SDS011;40046;53.254;5.900;2024-02-23T10:49:47;6.82;;;2.22;;
54139;SDS011;40046;53.254;5.900;2024-02-23T10:52:14;4.68;;;1.48;;
54139;SDS011;40046;53.254;5.900;2024-02-23T10:54:42;5.00;;;1.65;;
54139;SDS011;40046;53.254;5.900;2024-02-23T10:57:11;8.30;;;1.92;;
54139;SDS011;40046;53.254;5.900;2024-02-23T10:59:38;5.22;;;1.52;;
54139;SDS011;40046;53.254;5.900;2024-02-23T11:02:04;5.63;;;1.70;;
54139;SDS011;40046;53.254;5.900;2024-02-23T11:04:31;4.30;;;1.25;;
54139;SDS011;40046;53.254;5.900;2024-02-23T11:06:59;7.85;;;1.95;;
54139;SDS011;40046;53.254;5.900;2024-02-23T11:09:29;5.85;;;1.65;;
54139;SDS011;40046;53.254;5.900;2024-02-23T11:11:58;5.68;;;1.85;;
54139;SDS011;40046;53.254;5.900;2024-02-23T11:14:31;5.72;;;1.60;;
54139;SDS011;40046;53.254;5.900;2024-02-23T11:16:58;8.55;;;1.85;;
54139;SDS011;40046;53.254;5.900;2024-02-23T11:19:38;5.60;;;1.50;;
54139;SDS011;40046;53.254;5.900;2024-02-23T11:22:05;4.03;;;1.38;;
54139;SDS011;40046;53.254;5.900;2024-02-23T11:24:31;7.05;;;1.33;;
54139;SDS011;40046;53.254;5.900;2024-02-23T11:26:58;9.65;;;1.85;;
54139;SDS011;40046;53.254;5.900;2024-02-23T11:29:31;6.40;;;1.98;;
54139;SDS011;40046;53.254;5.900;2024-02-23T11:31:58;11.93;;;3.10;;
54139;SDS011;40046;53.254;5.900;2024-02-23T11:34:30;7.97;;;2.47;;
54139;SDS011;40046;53.254;5.900;2024-02-23T11:36:56;8.80;;;2.03;;
54139;SDS011;40046;53.254;5.900;2024-02-23T11:39:25;5.03;;;1.60;;
54139;SDS011;40046;53.254;5.900;2024-02-23T11:41:52;9.65;;;2.75;;
54139;SDS011;40046;53.254;5.900;2024-02-23T11:44:18;6.85;;;1.92;;
54139;SDS011;40046;53.254;5.900;2024-02-23T11:46:46;8.10;;;2.13;;
54139;SDS011;40046;53.254;5.900;2024-02-23T11:49:13;8.80;;;1.98;;
54139;SDS011;40046;53.254;5.900;2024-02-23T11:51:40;5.97;;;2.08;;
54139;SDS011;40046;53.254;5.900;2024-02-23T11:54:06;6.53;;;1.88;;
54139;SDS011;40046;53.254;5.900;2024-02-23T11:56:32;7.18;;;2.00;;
54139;SDS011;40046;53.254;5.900;2024-02-23T11:58:59;9.43;;;3.75;;
54139;SDS011;40046;53.254;5.900;2024-02-23T12:01:25;7.53;;;2.15;;
54139;SDS011;40046;53.254;5.900;2024-02-23T12:03:51;11.70;;;4.50;;
54139;SDS011;40046;53.254;5.900;2024-02-23T12:06:17;10.07;;;4.20;;
54139;SDS011;40046;53.254;5.900;2024-02-23T12:08:44;13.30;;;4.43;;
54139;SDS011;40046;53.254;5.900;2024-02-23T12:11:11;5.80;;;1.73;;
54139;SDS011;40046;53.254;5.900;2024-02-23T12:13:39;12.38;;;3.63;;
54139;SDS011;40046;53.254;5.900;2024-02-23T12:16:07;8.73;;;2.33;;
54139;SDS011;40046;53.254;5.900;2024-02-23T12:18:34;5.60;;;1.90;;
54139;SDS011;40046;53.254;5.900;2024-02-23T12:21:06;7.93;;;1.95;;
54139;SDS011;40046;53.254;5.900;2024-02-23T12:23:42;5.82;;;1.95;;
54139;SDS011;40046;53.254;5.900;2024-02-23T12:26:12;6.53;;;1.58;;
54139;SDS011;40046;53.254;5.900;2024-02-23T12:28:39;7.63;;;1.75;;
54139;SDS011;40046;53.254;5.900;2024-02-23T12:31:05;4.75;;;1.60;;
54139;SDS011;40046;53.254;5.900;2024-02-23T12:33:35;5.60;;;1.48;;
54139;SDS011;40046;53.254;5.900;2024-02-23T12:36:03;5.18;;;1.65;;
54139;SDS011;40046;53.254;5.900;2024-02-23T12:38:30;3.47;;;1.10;;
54139;SDS011;40046;53.254;5.900;2024-02-23T12:40:56;4.05;;;0.63;;
54139;SDS011;40046;53.254;5.900;2024-02-23T12:43:23;6.50;;;1.27;;
54139;SDS011;40046;53.254;5.900;2024-02-23T12:45:53;6.40;;;1.23;;
54139;SDS011;40046;53.254;5.900;2024-02-23T12:48:20;5.32;;;0.90;;
54139;SDS011;40046;53.254;5.900;2024-02-23T12:50:46;7.25;;;1.08;;
54139;SDS011;40046;53.254;5.900;2024-02-23T12:53:30;3.03;;;0.73;;
54139;SDS011;40046;53.254;5.900;2024-02-23T12:56:01;5.15;;;0.95;;
54139;SDS011;40046;53.254;5.900;2024-02-23T12:58:27;5.70;;;1.08;;
54139;SDS011;40046;53.254;5.900;2024-02-23T13:00:53;5.45;;;1.00;;
54139;SDS011;40046;53.254;5.900;2024-02-23T13:03:20;5.20;;;1.38;;
54139;SDS011;40046;53.254;5.900;2024-02-23T13:05:46;5.10;;;1.13;;
54139;SDS011;40046;53.254;5.900;2024-02-23T13:08:12;9.13;;;1.40;;
54139;SDS011;40046;53.254;5.900;2024-02-23T13:10:38;7.18;;;1.30;;
54139;SDS011;40046;53.254;5.900;2024-02-23T13:13:04;9.15;;;1.80;;
54139;SDS011;40046;53.254;5.900;2024-02-23T13:15:31;8.60;;;1.38;;
54139;SDS011;40046;53.254;5.900;2024-02-23T13:17:57;6.95;;;1.33;;
54139;SDS011;40046;53.254;5.900;2024-02-23T13:20:23;10.07;;;1.40;;
54139;SDS011;40046;53.254;5.900;2024-02-23T13:22:49;9.13;;;1.50;;
54139;SDS011;40046;53.254;5.900;2024-02-23T13:25:16;12.07;;;1.85;;
54139;SDS011;40046;53.254;5.900;2024-02-23T13:27:42;11.82;;;1.55;;
54139;SDS011;40046;53.254;5.900;2024-02-23T13:30:08;10.85;;;2.10;;
54139;SDS011;40046;53.254;5.900;2024-02-23T13:32:34;12.65;;;2.50;;
54139;SDS011;40046;53.254;5.900;2024-02-23T13:35:01;4.90;;;1.58;;
54139;SDS011;40046;53.254;5.900;2024-02-23T13:37:29;6.22;;;1.60;;
54139;SDS011;40046;53.254;5.900;2024-02-23T13:39:55;14.68;;;5.22;;
54139;SDS011;40046;53.254;5.900;2024-02-23T13:42:22;7.85;;;1.33;;
54139;SDS011;40046;53.254;5.900;2024-02-23T13:44:48;7.57;;;2.20;;
54139;SDS011;40046;53.254;5.900;2024-02-23T13:47:14;5.38;;;1.20;;
54139;SDS011;40046;53.254;5.900;2024-02-23T13:49:41;4.20;;;0.88;;
54139;SDS011;40046;53.254;5.900;2024-02-23T13:52:07;7.15;;;1.48;;
54139;SDS011;40046;53.254;5.900;2024-02-23T13:54:33;6.57;;;1.45;;
54139;SDS011;40046;53.254;5.900;2024-02-23T13:56:59;11.35;;;2.05;;
54139;SDS011;40046;53.254;5.900;2024-02-23T13:59:26;7.45;;;1.45;;
54139;SDS011;40046;53.254;5.900;2024-02-23T14:01:52;6.50;;;1.23;;
54139;SDS011;40046;53.254;5.900;2024-02-23T14:04:18;5.13;;;0.95;;
54139;SDS011;40046;53.254;5.900;2024-02-23T14:06:44;7.85;;;1.92;;
54139;SDS011;40046;53.254;5.900;2024-02-23T14:09:11;8.20;;;2.28;;
54139;SDS011;40046;53.254;5.900;2024-02-23T14:11:37;11.38;;;1.35;;
54139;SDS011;40046;53.254;5.900;2024-02-23T14:14:05;5.50;;;0.90;;
54139;SDS011;40046;53.254;5.900;2024-02-23T14:16:33;6.70;;;1.33;;
54139;SDS011;40046;53.254;5.900;2024-02-23T14:19:00;14.38;;;1.58;;
54139;SDS011;40046;53.254;5.900;2024-02-23T14:21:26;6.28;;;1.08;;
54139;SDS011;40046;53.254;5.900;2024-02-23T14:23:52;5.25;;;1.20;;
54139;SDS011;40046;53.254;5.900;2024-02-23T14:26:18;9.50;;;1.25;;
54139;SDS011;40046;53.254;5.900;2024-02-23T14:28:44;10.45;;;1.63;;
54139;SDS011;40046;53.254;5.900;2024-02-23T14:31:11;10.18;;;1.27;;
54139;SDS011;40046;53.254;5.900;2024-02-23T14:33:37;8.65;;;2.00;;
54139;SDS011;40046;53.254;5.900;2024-02-23T14:36:03;10.52;;;2.47;;
54139;SDS011;40046;53.254;5.900;2024-02-23T14:38:29;6.90;;;1.63;;